PWSweather.com
Personal Weather Stations
Station Observations
WISCHPK61
Green Bay Schmitt Park, Green Bay, WI 54311

Green Bay Schmitt ParkGreen Bay, WI 54311

Lat: 44.514277, Lon: -87.935067

Elevation: 735

Station Type: Acu Rite Pro Weather Center model 02032C

http://greenbayweathercam.com

High Low Average
Temperature 52.9°F11.6°C 38.3°F3.5°C 45.4°F7.4°C
Dew Point 52.6°F11.4°C 33.1°F0.6°C 43.7°F6.5°C
Winds 1.2 mph 1.9 kmh Calm Calm Calm SCalm S
Wind Gusts 5.8 mph9.3 kmh -- --
Humidity 99% 74% 94%
Pressure 29.31 in992.6 mb 28.95 in980.4 mb -
Precipitation 0.26 in6.6 mm - -
Hour Temp Dew Point Humidity Winds Wind Gusts Pressure Precip Precip Rate Daily Precip Total
12:00 AM 38.5°F3.6°C 33.5°F0.8°C 82% Calm Calm -- 29.32 in992.9 mb - 0.00 in0.0 mm 0.00 in0.0 mm
01:00 AM 38.3°F3.5°C 38.0°F3.3°C 99% Calm Calm -- 29.31 in992.6 mb - 0.00 in0.0 mm 0.00 in0.0 mm
02:00 AM 38.8°F3.8°C 34.1°F1.2°C 83% Calm Calm -- 29.31 in992.6 mb - 0.00 in0.0 mm 0.00 in0.0 mm
03:00 AM 39.4°F4.1°C 33.1°F0.6°C 78% Calm Calm -- 29.30 in992.2 mb - 0.00 in0.0 mm 0.00 in0.0 mm
04:00 AM 38.7°F3.7°C 38.4°F3.6°C 99% Calm Calm -- 29.28 in991.5 mb - 0.00 in0.0 mm 0.00 in0.0 mm
05:00 AM 38.8°F3.8°C 38.5°F3.6°C 99% Calm Calm -- 29.25 in990.5 mb - 0.00 in0.0 mm 0.00 in0.0 mm
06:00 AM 40.3°F4.6°C 40.0°F4.4°C 99% Calm Calm -- 29.22 in989.5 mb - 0.00 in0.0 mm 0.00 in0.0 mm
07:00 AM 42.4°F5.8°C 42.1°F5.6°C 99% Calm Calm -- 29.20 in988.8 mb - 0.00 in0.0 mm 0.00 in0.0 mm
08:00 AM 43.3°F6.3°C 40.0°F4.4°C 88% Calm Calm -- 29.18 in988.1 mb - 0.02 in0.5 mm 0.02 in0.5 mm
09:00 AM 44.6°F7.0°C 44.3°F6.8°C 99% Calm Calm -- 29.15 in987.1 mb - 0.02 in0.5 mm 0.04 in1.0 mm
10:00 AM 46.6°F8.1°C 46.3°F7.9°C 99% Calm Calm -- 29.12 in986.1 mb - 0.01 in0.3 mm 0.05 in1.3 mm
11:00 AM 48.7°F9.3°C 45.0°F7.2°C 87% 1.2 mph S1.9 kmh S -- 29.06 in984.1 mb - 0.07 in1.8 mm 0.12 in3.0 mm
12:00 PM 51.1°F10.6°C 48.9°F9.4°C 92% Calm Calm -- 29.03 in983.1 mb - 0.00 in0.0 mm 0.12 in3.0 mm
01:00 PM 52.9°F11.6°C 52.6°F11.4°C 99% 1.2 mph S1.9 kmh S 5.8 mph9.3 kmh 28.97 in981.0 mb - 0.00 in0.0 mm 0.12 in3.0 mm
02:00 PM 52.9°F11.6°C 44.8°F7.1°C 74% Calm Calm -- 28.97 in981.0 mb - 0.00 in0.0 mm 0.12 in3.0 mm
03:00 PM 51.1°F10.6°C 46.1°F7.8°C 83% Calm Calm -- 28.95 in980.4 mb - 0.13 in3.3 mm 0.25 in6.4 mm
04:00 PM 50.7°F10.4°C 50.4°F10.2°C 99% Calm Calm -- 28.95 in980.4 mb - 0.01 in0.3 mm 0.26 in6.6 mm
05:00 PM 49.8°F9.9°C 49.5°F9.7°C 99% Calm Calm -- 28.95 in980.4 mb - 0.00 in0.0 mm 0.26 in6.6 mm
06:00 PM 48.4°F9.1°C 48.1°F8.9°C 99% Calm Calm -- 28.95 in980.4 mb - 0.00 in0.0 mm 0.26 in6.6 mm
07:00 PM 47.3°F8.5°C 47.0°F8.3°C 99% Calm Calm -- 28.96 in980.7 mb - 0.00 in0.0 mm 0.26 in6.6 mm
08:00 PM 46.6°F8.1°C 46.3°F7.9°C 99% Calm Calm -- 28.96 in980.7 mb - 0.00 in0.0 mm 0.26 in6.6 mm
09:00 PM 46.0°F7.8°C 45.7°F7.6°C 99% Calm Calm -- 28.95 in980.4 mb - 0.00 in0.0 mm 0.26 in6.6 mm
10:00 PM 45.3°F7.4°C 45.0°F7.2°C 99% Calm Calm -- 28.96 in980.7 mb - 0.00 in0.0 mm 0.26 in6.6 mm
11:00 PM 44.1°F6.7°C 40.5°F4.7°C 87% Calm Calm -- 28.95 in980.4 mb - 0.00 in0.0 mm 0.26 in6.6 mm